sensor_id;sensor_type;location;lat;lon;timestamp;P1;durP1;ratioP1;P2;durP2;ratioP2
58665;SDS011;44436;52.872;6.520;2022-09-03T00:00:33;10.18;;;1.20;;
58665;SDS011;44436;52.872;6.520;2022-09-03T00:08:20;2.10;;;0.80;;
58665;SDS011;44436;52.872;6.520;2022-09-03T00:10:53;2.88;;;0.95;;
58665;SDS011;44436;52.872;6.520;2022-09-03T00:13:26;4.10;;;0.85;;
58665;SDS011;44436;52.872;6.520;2022-09-03T00:16:14;3.83;;;0.70;;
58665;SDS011;44436;52.872;6.520;2022-09-03T00:18:47;4.20;;;0.80;;
58665;SDS011;44436;52.872;6.520;2022-09-03T00:21:18;3.05;;;0.70;;
58665;SDS011;44436;52.872;6.520;2022-09-03T00:23:52;1.77;;;0.60;;
58665;SDS011;44436;52.872;6.520;2022-09-03T00:26:24;4.03;;;0.82;;
58665;SDS011;44436;52.872;6.520;2022-09-03T00:28:58;3.15;;;0.52;;
58665;SDS011;44436;52.872;6.520;2022-09-03T00:31:40;4.10;;;0.60;;
58665;SDS011;44436;52.872;6.520;2022-09-03T00:36:58;2.45;;;0.70;;
58665;SDS011;44436;52.872;6.520;2022-09-03T00:39:24;1.30;;;0.80;;
58665;SDS011;44436;52.872;6.520;2022-09-03T00:44:39;3.20;;;0.55;;
58665;SDS011;44436;52.872;6.520;2022-09-03T00:47:38;3.13;;;0.95;;
58665;SDS011;44436;52.872;6.520;2022-09-03T01:00:56;4.25;;;0.85;;
58665;SDS011;44436;52.872;6.520;2022-09-03T01:06:04;2.70;;;0.70;;
58665;SDS011;44436;52.872;6.520;2022-09-03T01:08:42;2.33;;;0.75;;
58665;SDS011;44436;52.872;6.520;2022-09-03T01:11:32;2.17;;;0.85;;
58665;SDS011;44436;52.872;6.520;2022-09-03T01:25:34;2.00;;;0.77;;
58665;SDS011;44436;52.872;6.520;2022-09-03T01:33:43;3.63;;;0.82;;
58665;SDS011;44436;52.872;6.520;2022-09-03T01:39:13;3.42;;;0.50;;
58665;SDS011;44436;52.872;6.520;2022-09-03T01:41:51;3.10;;;0.80;;
58665;SDS011;44436;52.872;6.520;2022-09-03T01:55:48;2.92;;;0.70;;
58665;SDS011;44436;52.872;6.520;2022-09-03T02:00:55;4.07;;;0.65;;
58665;SDS011;44436;52.872;6.520;2022-09-03T02:03:25;2.88;;;0.82;;
58665;SDS011;44436;52.872;6.520;2022-09-03T02:06:00;6.47;;;0.95;;
58665;SDS011;44436;52.872;6.520;2022-09-03T02:08:26;2.03;;;0.70;;
58665;SDS011;44436;52.872;6.520;2022-09-03T02:10:52;4.80;;;0.70;;
58665;SDS011;44436;52.872;6.520;2022-09-03T02:13:25;3.90;;;0.50;;
58665;SDS011;44436;52.872;6.520;2022-09-03T02:15:55;3.00;;;0.63;;
58665;SDS011;44436;52.872;6.520;2022-09-03T02:18:29;4.32;;;0.60;;
58665;SDS011;44436;52.872;6.520;2022-09-03T02:21:00;1.38;;;0.63;;
58665;SDS011;44436;52.872;6.520;2022-09-03T02:23:25;3.97;;;0.70;;
58665;SDS011;44436;52.872;6.520;2022-09-03T02:25:54;2.88;;;0.60;;
58665;SDS011;44436;52.872;6.520;2022-09-03T02:28:22;2.45;;;0.70;;
58665;SDS011;44436;52.872;6.520;2022-09-03T02:30:48;3.28;;;0.80;;
58665;SDS011;44436;52.872;6.520;2022-09-03T02:33:14;4.05;;;0.60;;
58665;SDS011;44436;52.872;6.520;2022-09-03T02:35:40;4.82;;;0.93;;
58665;SDS011;44436;52.872;6.520;2022-09-03T02:38:14;5.28;;;0.80;;
58665;SDS011;44436;52.872;6.520;2022-09-03T02:40:42;4.07;;;0.63;;
58665;SDS011;44436;52.872;6.520;2022-09-03T02:43:14;4.00;;;0.52;;
58665;SDS011;44436;52.872;6.520;2022-09-03T02:45:47;1.92;;;0.50;;
58665;SDS011;44436;52.872;6.520;2022-09-03T02:48:15;4.95;;;0.95;;
58665;SDS011;44436;52.872;6.520;2022-09-03T02:50:46;4.57;;;0.82;;
58665;SDS011;44436;52.872;6.520;2022-09-03T02:53:12;6.28;;;0.77;;
58665;SDS011;44436;52.872;6.520;2022-09-03T02:55:38;1.70;;;0.60;;
58665;SDS011;44436;52.872;6.520;2022-09-03T02:58:03;1.85;;;0.77;;
58665;SDS011;44436;52.872;6.520;2022-09-03T03:00:33;2.88;;;0.60;;
58665;SDS011;44436;52.872;6.520;2022-09-03T03:03:00;2.30;;;0.50;;
58665;SDS011;44436;52.872;6.520;2022-09-03T03:05:29;2.60;;;0.68;;
58665;SDS011;44436;52.872;6.520;2022-09-03T03:08:10;2.00;;;0.47;;
58665;SDS011;44436;52.872;6.520;2022-09-03T03:10:39;2.17;;;0.70;;
58665;SDS011;44436;52.872;6.520;2022-09-03T03:13:07;2.83;;;0.70;;
58665;SDS011;44436;52.872;6.520;2022-09-03T03:15:32;3.08;;;0.63;;
58665;SDS011;44436;52.872;6.520;2022-09-03T03:17:58;3.13;;;0.73;;
58665;SDS011;44436;52.872;6.520;2022-09-03T03:20:23;4.75;;;0.65;;
58665;SDS011;44436;52.872;6.520;2022-09-03T03:22:49;1.23;;;0.73;;
58665;SDS011;44436;52.872;6.520;2022-09-03T03:25:15;5.45;;;0.80;;
58665;SDS011;44436;52.872;6.520;2022-09-03T03:27:40;4.55;;;0.70;;
58665;SDS011;44436;52.872;6.520;2022-09-03T03:30:07;2.10;;;0.50;;
58665;SDS011;44436;52.872;6.520;2022-09-03T03:32:37;2.85;;;0.60;;
58665;SDS011;44436;52.872;6.520;2022-09-03T03:35:04;1.95;;;0.60;;
58665;SDS011;44436;52.872;6.520;2022-09-03T03:37:31;3.47;;;0.50;;
58665;SDS011;44436;52.872;6.520;2022-09-03T03:39:57;3.22;;;0.60;;
58665;SDS011;44436;52.872;6.520;2022-09-03T03:42:23;2.90;;;0.90;;
58665;SDS011;44436;52.872;6.520;2022-09-03T03:44:48;0.85;;;0.50;;
58665;SDS011;44436;52.872;6.520;2022-09-03T03:47:14;2.55;;;0.60;;
58665;SDS011;44436;52.872;6.520;2022-09-03T03:49:41;4.03;;;1.05;;
58665;SDS011;44436;52.872;6.520;2022-09-03T03:52:09;5.35;;;0.90;;
58665;SDS011;44436;52.872;6.520;2022-09-03T03:54:35;3.47;;;0.88;;
58665;SDS011;44436;52.872;6.520;2022-09-03T03:57:02;5.57;;;0.98;;
58665;SDS011;44436;52.872;6.520;2022-09-03T03:59:28;3.05;;;0.77;;
58665;SDS011;44436;52.872;6.520;2022-09-03T04:01:54;1.95;;;0.77;;
58665;SDS011;44436;52.872;6.520;2022-09-03T04:04:19;6.50;;;0.98;;
58665;SDS011;44436;52.872;6.520;2022-09-03T04:06:45;2.03;;;0.75;;
58665;SDS011;44436;52.872;6.520;2022-09-03T04:09:11;1.38;;;0.77;;
58665;SDS011;44436;52.872;6.520;2022-09-03T04:11:37;5.07;;;0.63;;
58665;SDS011;44436;52.872;6.520;2022-09-03T04:14:03;4.88;;;0.70;;
58665;SDS011;44436;52.872;6.520;2022-09-03T04:16:29;6.00;;;0.80;;
58665;SDS011;44436;52.872;6.520;2022-09-03T04:18:56;2.53;;;0.55;;
58665;SDS011;44436;52.872;6.520;2022-09-03T04:21:22;5.40;;;0.80;;
58665;SDS011;44436;52.872;6.520;2022-09-03T04:23:52;3.63;;;0.75;;
58665;SDS011;44436;52.872;6.520;2022-09-03T04:26:20;1.58;;;0.60;;
58665;SDS011;44436;52.872;6.520;2022-09-03T04:28:47;3.95;;;0.60;;
58665;SDS011;44436;52.872;6.520;2022-09-03T04:31:13;3.88;;;0.65;;
58665;SDS011;44436;52.872;6.520;2022-09-03T04:33:40;2.90;;;0.70;;
58665;SDS011;44436;52.872;6.520;2022-09-03T04:36:10;2.47;;;0.73;;
58665;SDS011;44436;52.872;6.520;2022-09-03T04:38:38;3.00;;;0.85;;
58665;SDS011;44436;52.872;6.520;2022-09-03T04:41:06;4.68;;;0.63;;
58665;SDS011;44436;52.872;6.520;2022-09-03T04:43:34;2.88;;;0.77;;
58665;SDS011;44436;52.872;6.520;2022-09-03T04:46:04;3.92;;;0.75;;
58665;SDS011;44436;52.872;6.520;2022-09-03T04:48:32;1.02;;;0.60;;
58665;SDS011;44436;52.872;6.520;2022-09-03T04:51:02;1.52;;;0.80;;
58665;SDS011;44436;52.872;6.520;2022-09-03T04:53:36;3.03;;;1.05;;
58665;SDS011;44436;52.872;6.520;2022-09-03T04:56:10;3.47;;;0.73;;
58665;SDS011;44436;52.872;6.520;2022-09-03T04:58:37;1.67;;;0.73;;
58665;SDS011;44436;52.872;6.520;2022-09-03T05:01:10;5.85;;;1.30;;
58665;SDS011;44436;52.872;6.520;2022-09-03T05:03:43;6.45;;;0.90;;
58665;SDS011;44436;52.872;6.520;2022-09-03T05:06:09;2.92;;;1.10;;
58665;SDS011;44436;52.872;6.520;2022-09-03T05:08:36;2.65;;;0.70;;
58665;SDS011;44436;52.872;6.520;2022-09-03T05:11:02;6.82;;;1.10;;
58665;SDS011;44436;52.872;6.520;2022-09-03T05:13:32;3.72;;;0.77;;
58665;SDS011;44436;52.872;6.520;2022-09-03T05:16:02;3.25;;;0.88;;
58665;SDS011;44436;52.872;6.520;2022-09-03T05:18:30;2.63;;;0.95;;
58665;SDS011;44436;52.872;6.520;2022-09-03T05:21:06;7.95;;;0.95;;
58665;SDS011;44436;52.872;6.520;2022-09-03T05:23:37;2.67;;;0.90;;
58665;SDS011;44436;52.872;6.520;2022-09-03T05:26:05;3.38;;;0.95;;
58665;SDS011;44436;52.872;6.520;2022-09-03T05:28:37;1.98;;;1.05;;
58665;SDS011;44436;52.872;6.520;2022-09-03T05:33:34;5.45;;;0.82;;
58665;SDS011;44436;52.872;6.520;2022-09-03T05:38:35;5.90;;;1.20;;
58665;SDS011;44436;52.872;6.520;2022-09-03T05:41:01;1.88;;;1.00;;
58665;SDS011;44436;52.872;6.520;2022-09-03T05:43:29;2.45;;;0.90;;
58665;SDS011;44436;52.872;6.520;2022-09-03T05:45:59;2.65;;;1.10;;
58665;SDS011;44436;52.872;6.520;2022-09-03T05:48:26;7.05;;;1.50;;
58665;SDS011;44436;52.872;6.520;2022-09-03T05:51:03;1.52;;;0.93;;
58665;SDS011;44436;52.872;6.520;2022-09-03T05:53:31;2.88;;;1.10;;
58665;SDS011;44436;52.872;6.520;2022-09-03T05:56:00;2.35;;;1.13;;
58665;SDS011;44436;52.872;6.520;2022-09-03T05:58:31;2.85;;;1.13;;
58665;SDS011;44436;52.872;6.520;2022-09-03T06:00:58;1.77;;;1.00;;
58665;SDS011;44436;52.872;6.520;2022-09-03T06:03:23;4.20;;;0.93;;
58665;SDS011;44436;52.872;6.520;2022-09-03T06:05:50;2.88;;;0.80;;
58665;SDS011;44436;52.872;6.520;2022-09-03T06:08:19;6.90;;;1.00;;
58665;SDS011;44436;52.872;6.520;2022-09-03T06:10:46;6.45;;;0.98;;
58665;SDS011;44436;52.872;6.520;2022-09-03T06:13:12;5.68;;;1.13;;
58665;SDS011;44436;52.872;6.520;2022-09-03T06:15:38;3.67;;;0.80;;
58665;SDS011;44436;52.872;6.520;2022-09-03T06:18:04;3.33;;;0.98;;
58665;SDS011;44436;52.872;6.520;2022-09-03T06:20:30;4.32;;;1.17;;
58665;SDS011;44436;52.872;6.520;2022-09-03T06:22:56;4.43;;;1.13;;
58665;SDS011;44436;52.872;6.520;2022-09-03T06:25:22;4.00;;;1.02;;
58665;SDS011;44436;52.872;6.520;2022-09-03T06:27:48;8.43;;;1.40;;
58665;SDS011;44436;52.872;6.520;2022-09-03T06:30:15;5.13;;;1.20;;
58665;SDS011;44436;52.872;6.520;2022-09-03T06:32:44;7.63;;;1.40;;
58665;SDS011;44436;52.872;6.520;2022-09-03T06:35:10;5.05;;;1.38;;
58665;SDS011;44436;52.872;6.520;2022-09-03T06:37:39;1.65;;;1.10;;
58665;SDS011;44436;52.872;6.520;2022-09-03T06:40:06;2.55;;;0.93;;
58665;SDS011;44436;52.872;6.520;2022-09-03T06:42:37;5.82;;;1.00;;
58665;SDS011;44436;52.872;6.520;2022-09-03T06:45:05;2.05;;;1.33;;
58665;SDS011;44436;52.872;6.520;2022-09-03T06:47:32;6.28;;;1.13;;
58665;SDS011;44436;52.872;6.520;2022-09-03T06:49:58;4.47;;;1.23;;
58665;SDS011;44436;52.872;6.520;2022-09-03T06:52:24;5.28;;;1.42;;
58665;SDS011;44436;52.872;6.520;2022-09-03T06:54:50;4.05;;;1.10;;
58665;SDS011;44436;52.872;6.520;2022-09-03T06:57:16;3.08;;;0.98;;
58665;SDS011;44436;52.872;6.520;2022-09-03T06:59:42;1.27;;;0.80;;
58665;SDS011;44436;52.872;6.520;2022-09-03T07:02:08;1.23;;;0.90;;
58665;SDS011;44436;52.872;6.520;2022-09-03T07:04:34;2.33;;;1.20;;
58665;SDS011;44436;52.872;6.520;2022-09-03T07:07:00;6.70;;;1.25;;
58665;SDS011;44436;52.872;6.520;2022-09-03T07:09:26;1.73;;;1.13;;
58665;SDS011;44436;52.872;6.520;2022-09-03T07:11:52;7.72;;;1.27;;
58665;SDS011;44436;52.872;6.520;2022-09-03T07:14:19;4.35;;;1.10;;
58665;SDS011;44436;52.872;6.520;2022-09-03T07:16:46;3.85;;;1.15;;
58665;SDS011;44436;52.872;6.520;2022-09-03T07:19:13;1.80;;;1.05;;
58665;SDS011;44436;52.872;6.520;2022-09-03T07:21:39;1.50;;;0.98;;
58665;SDS011;44436;52.872;6.520;2022-09-03T07:24:06;3.85;;;1.10;;
58665;SDS011;44436;52.872;6.520;2022-09-03T07:26:34;7.00;;;1.08;;
58665;SDS011;44436;52.872;6.520;2022-09-03T07:29:02;4.95;;;1.45;;
58665;SDS011;44436;52.872;6.520;2022-09-03T07:31:35;2.83;;;0.93;;
58665;SDS011;44436;52.872;6.520;2022-09-03T07:34:06;3.72;;;1.20;;
58665;SDS011;44436;52.872;6.520;2022-09-03T07:36:40;3.25;;;1.00;;
58665;SDS011;44436;52.872;6.520;2022-09-03T07:39:07;2.88;;;1.70;;
58665;SDS011;44436;52.872;6.520;2022-09-03T07:41:35;5.28;;;1.00;;
58665;SDS011;44436;52.872;6.520;2022-09-03T07:44:01;4.95;;;1.20;;
58665;SDS011;44436;52.872;6.520;2022-09-03T07:46:30;3.72;;;1.75;;
58665;SDS011;44436;52.872;6.520;2022-09-03T07:48:58;5.55;;;1.23;;
58665;SDS011;44436;52.872;6.520;2022-09-03T07:51:27;2.75;;;0.90;;
58665;SDS011;44436;52.872;6.520;2022-09-03T07:53:55;7.13;;;1.20;;
58665;SDS011;44436;52.872;6.520;2022-09-03T07:56:22;7.05;;;1.45;;
58665;SDS011;44436;52.872;6.520;2022-09-03T07:58:48;4.78;;;1.30;;
58665;SDS011;44436;52.872;6.520;2022-09-03T08:01:15;5.30;;;1.20;;
58665;SDS011;44436;52.872;6.520;2022-09-03T08:03:43;2.17;;;1.00;;
58665;SDS011;44436;52.872;6.520;2022-09-03T08:06:14;6.00;;;1.30;;
58665;SDS011;44436;52.872;6.520;2022-09-03T08:08:41;6.68;;;1.33;;
58665;SDS011;44436;52.872;6.520;2022-09-03T08:11:10;2.45;;;1.10;;
58665;SDS011;44436;52.872;6.520;2022-09-03T08:13:40;3.25;;;1.40;;
58665;SDS011;44436;52.872;6.520;2022-09-03T08:16:09;1.55;;;1.00;;
58665;SDS011;44436;52.872;6.520;2022-09-03T08:18:36;3.90;;;0.90;;
58665;SDS011;44436;52.872;6.520;2022-09-03T08:21:05;3.30;;;1.30;;
58665;SDS011;44436;52.872;6.520;2022-09-03T08:23:39;5.95;;;0.90;;
58665;SDS011;44436;52.872;6.520;2022-09-03T08:26:07;4.03;;;1.10;;
58665;SDS011;44436;52.872;6.520;2022-09-03T08:28:33;2.92;;;1.20;;
58665;SDS011;44436;52.872;6.520;2022-09-03T08:31:06;1.52;;;0.85;;
58665;SDS011;44436;52.872;6.520;2022-09-03T08:33:39;5.03;;;1.10;;
58665;SDS011;44436;52.872;6.520;2022-09-03T08:36:11;4.90;;;1.13;;
58665;SDS011;44436;52.872;6.520;2022-09-03T08:38:38;4.60;;;1.23;;
58665;SDS011;44436;52.872;6.520;2022-09-03T08:41:15;5.55;;;1.15;;
58665;SDS011;44436;52.872;6.520;2022-09-03T08:49:33;3.33;;;1.15;;
58665;SDS011;44436;52.872;6.520;2022-09-03T08:52:02;1.92;;;0.95;;
58665;SDS011;44436;52.872;6.520;2022-09-03T08:54:32;3.60;;;1.08;;
58665;SDS011;44436;52.872;6.520;2022-09-03T08:57:01;6.90;;;1.38;;
58665;SDS011;44436;52.872;6.520;2022-09-03T08:59:30;2.60;;;0.98;;
58665;SDS011;44436;52.872;6.520;2022-09-03T09:02:03;5.40;;;1.30;;
58665;SDS011;44436;52.872;6.520;2022-09-03T09:05:08;4.90;;;1.17;;
58665;SDS011;44436;52.872;6.520;2022-09-03T09:07:45;5.13;;;1.05;;
58665;SDS011;44436;52.872;6.520;2022-09-03T09:10:23;3.92;;;1.20;;
58665;SDS011;44436;52.872;6.520;2022-09-03T09:19:16;35.05;;;3.20;;
58665;SDS011;44436;52.872;6.520;2022-09-03T09:21:52;21.38;;;2.03;;
58665;SDS011;44436;52.872;6.520;2022-09-03T09:24:23;14.52;;;1.92;;
58665;SDS011;44436;52.872;6.520;2022-09-03T09:26:52;7.63;;;1.17;;
58665;SDS011;44436;52.872;6.520;2022-09-03T09:29:23;6.30;;;1.20;;
58665;SDS011;44436;52.872;6.520;2022-09-03T09:31:52;8.70;;;1.45;;
58665;SDS011;44436;52.872;6.520;2022-09-03T09:34:18;5.50;;;1.20;;
58665;SDS011;44436;52.872;6.520;2022-09-03T09:36:46;3.47;;;0.98;;
58665;SDS011;44436;52.872;6.520;2022-09-03T09:39:14;5.35;;;0.85;;
58665;SDS011;44436;52.872;6.520;2022-09-03T09:41:40;4.10;;;1.00;;
58665;SDS011;44436;52.872;6.520;2022-09-03T09:44:07;4.25;;;0.88;;
58665;SDS011;44436;52.872;6.520;2022-09-03T09:46:42;3.05;;;1.15;;
58665;SDS011;44436;52.872;6.520;2022-09-03T09:52:13;3.00;;;1.00;;
58665;SDS011;44436;52.872;6.520;2022-09-03T09:54:41;6.72;;;1.10;;
58665;SDS011;44436;52.872;6.520;2022-09-03T09:57:13;4.07;;;0.80;;
58665;SDS011;44436;52.872;6.520;2022-09-03T09:59:46;6.10;;;0.95;;
58665;SDS011;44436;52.872;6.520;2022-09-03T10:02:23;2.97;;;0.75;;
58665;SDS011;44436;52.872;6.520;2022-09-03T10:05:00;8.70;;;0.98;;
58665;SDS011;44436;52.872;6.520;2022-09-03T10:08:00;4.95;;;1.15;;
58665;SDS011;44436;52.872;6.520;2022-09-03T10:10:35;2.28;;;1.10;;
58665;SDS011;44436;52.872;6.520;2022-09-03T10:13:13;5.80;;;0.95;;
58665;SDS011;44436;52.872;6.520;2022-09-03T10:16:20;4.45;;;0.95;;
58665;SDS011;44436;52.872;6.520;2022-09-03T10:26:45;3.35;;;0.90;;
58665;SDS011;44436;52.872;6.520;2022-09-03T10:29:13;3.83;;;1.10;;
58665;SDS011;44436;52.872;6.520;2022-09-03T10:32:02;7.57;;;1.30;;
58665;SDS011;44436;52.872;6.520;2022-09-03T10:34:37;6.22;;;0.85;;
58665;SDS011;44436;52.872;6.520;2022-09-03T10:40:17;5.70;;;0.80;;
58665;SDS011;44436;52.872;6.520;2022-09-03T10:43:01;5.03;;;0.90;;
58665;SDS011;44436;52.872;6.520;2022-09-03T10:51:54;3.80;;;1.10;;
58665;SDS011;44436;52.872;6.520;2022-09-03T10:57:20;4.03;;;1.00;;
58665;SDS011;44436;52.872;6.520;2022-09-03T11:00:08;7.28;;;0.90;;
58665;SDS011;44436;52.872;6.520;2022-09-03T11:05:09;3.53;;;1.15;;
58665;SDS011;44436;52.872;6.520;2022-09-03T11:07:47;4.90;;;0.90;;
58665;SDS011;44436;52.872;6.520;2022-09-03T11:10:26;6.47;;;0.90;;
58665;SDS011;44436;52.872;6.520;2022-09-03T11:12:57;5.57;;;1.00;;
58665;SDS011;44436;52.872;6.520;2022-09-03T11:15:57;2.70;;;1.00;;
58665;SDS011;44436;52.872;6.520;2022-09-03T11:18:32;2.95;;;0.88;;
58665;SDS011;44436;52.872;6.520;2022-09-03T11:21:05;2.90;;;1.00;;
58665;SDS011;44436;52.872;6.520;2022-09-03T11:23:36;4.35;;;0.82;;
58665;SDS011;44436;52.872;6.520;2022-09-03T11:26:09;7.55;;;0.80;;
58665;SDS011;44436;52.872;6.520;2022-09-03T11:28:42;3.47;;;0.80;;
58665;SDS011;44436;52.872;6.520;2022-09-03T11:34:07;2.22;;;0.80;;
58665;SDS011;44436;52.872;6.520;2022-09-03T11:36:40;2.90;;;0.85;;
58665;SDS011;44436;52.872;6.520;2022-09-03T11:39:19;3.22;;;0.90;;
58665;SDS011;44436;52.872;6.520;2022-09-03T11:41:55;3.53;;;0.75;;
58665;SDS011;44436;52.872;6.520;2022-09-03T11:44:23;1.73;;;0.85;;
58665;SDS011;44436;52.872;6.520;2022-09-03T11:46:55;3.35;;;0.90;;
58665;SDS011;44436;52.872;6.520;2022-09-03T11:49:26;4.50;;;0.93;;
58665;SDS011;44436;52.872;6.520;2022-09-03T11:51:58;4.38;;;1.15;;
58665;SDS011;44436;52.872;6.520;2022-09-03T11:54:25;2.08;;;1.10;;
58665;SDS011;44436;52.872;6.520;2022-09-03T11:57:05;3.30;;;0.80;;
58665;SDS011;44436;52.872;6.520;2022-09-03T11:59:47;4.28;;;0.80;;
58665;SDS011;44436;52.872;6.520;2022-09-03T12:15:54;5.05;;;0.73;;
58665;SDS011;44436;52.872;6.520;2022-09-03T12:18:28;1.23;;;0.90;;
58665;SDS011;44436;52.872;6.520;2022-09-03T12:23:31;5.40;;;1.00;;
58665;SDS011;44436;52.872;6.520;2022-09-03T12:26:06;4.72;;;0.80;;
58665;SDS011;44436;52.872;6.520;2022-09-03T12:28:34;3.50;;;1.00;;
58665;SDS011;44436;52.872;6.520;2022-09-03T12:31:05;1.48;;;0.70;;
58665;SDS011;44436;52.872;6.520;2022-09-03T12:33:47;1.40;;;1.00;;
58665;SDS011;44436;52.872;6.520;2022-09-03T12:36:15;3.35;;;0.98;;
58665;SDS011;44436;52.872;6.520;2022-09-03T12:38:42;6.22;;;1.00;;
58665;SDS011;44436;52.872;6.520;2022-09-03T12:41:27;9.07;;;1.10;;
58665;SDS011;44436;52.872;6.520;2022-09-03T12:43:56;7.75;;;1.40;;
58665;SDS011;44436;52.872;6.520;2022-09-03T12:46:27;4.03;;;0.88;;
58665;SDS011;44436;52.872;6.520;2022-09-03T12:48:58;6.88;;;1.13;;
58665;SDS011;44436;52.872;6.520;2022-09-03T12:51:50;2.15;;;0.80;;
58665;SDS011;44436;52.872;6.520;2022-09-03T12:54:15;3.90;;;0.73;;
58665;SDS011;44436;52.872;6.520;2022-09-03T12:56:42;3.13;;;0.90;;
58665;SDS011;44436;52.872;6.520;2022-09-03T12:59:18;4.43;;;0.90;;
58665;SDS011;44436;52.872;6.520;2022-09-03T13:01:47;4.78;;;0.93;;
58665;SDS011;44436;52.872;6.520;2022-09-03T13:04:20;3.97;;;0.85;;
58665;SDS011;44436;52.872;6.520;2022-09-03T13:07:03;4.13;;;0.77;;
58665;SDS011;44436;52.872;6.520;2022-09-03T13:09:36;2.70;;;0.88;;
58665;SDS011;44436;52.872;6.520;2022-09-03T13:12:03;5.70;;;0.70;;
58665;SDS011;44436;52.872;6.520;2022-09-03T13:14:40;2.83;;;0.75;;
58665;SDS011;44436;52.872;6.520;2022-09-03T13:25:33;2.75;;;0.98;;
58665;SDS011;44436;52.872;6.520;2022-09-03T13:33:52;5.28;;;1.00;;
58665;SDS011;44436;52.872;6.520;2022-09-03T13:36:45;5.88;;;0.80;;
58665;SDS011;44436;52.872;6.520;2022-09-03T13:39:29;5.05;;;0.82;;
58665;SDS011;44436;52.872;6.520;2022-09-03T13:42:17;5.00;;;0.80;;
58665;SDS011;44436;52.872;6.520;2022-09-03T13:44:55;2.92;;;0.65;;
58665;SDS011;44436;52.872;6.520;2022-09-03T13:47:40;4.13;;;0.88;;
58665;SDS011;44436;52.872;6.520;2022-09-03T13:50:38;4.60;;;0.83;;
58665;SDS011;44436;52.872;6.520;2022-09-03T13:55:45;1.50;;;0.70;;
58665;SDS011;44436;52.872;6.520;2022-09-03T13:58:20;2.00;;;0.75;;
58665;SDS011;44436;52.872;6.520;2022-09-03T14:03:32;2.35;;;0.60;;
58665;SDS011;44436;52.872;6.520;2022-09-03T14:11:56;1.85;;;0.60;;
58665;SDS011;44436;52.872;6.520;2022-09-03T14:17:40;2.47;;;0.90;;
58665;SDS011;44436;52.872;6.520;2022-09-03T14:20:24;3.13;;;0.77;;
58665;SDS011;44436;52.872;6.520;2022-09-03T14:23:03;2.08;;;0.68;;
58665;SDS011;44436;52.872;6.520;2022-09-03T14:25:34;4.10;;;0.90;;
58665;SDS011;44436;52.872;6.520;2022-09-03T14:31:17;3.38;;;0.70;;
58665;SDS011;44436;52.872;6.520;2022-09-03T14:36:44;4.32;;;0.70;;
58665;SDS011;44436;52.872;6.520;2022-09-03T14:39:30;9.27;;;1.00;;
58665;SDS011;44436;52.872;6.520;2022-09-03T14:42:28;4.47;;;0.75;;
58665;SDS011;44436;52.872;6.520;2022-09-03T14:54:19;4.63;;;0.70;;
58665;SDS011;44436;52.872;6.520;2022-09-03T14:56:58;6.00;;;1.00;;
58665;SDS011;44436;52.872;6.520;2022-09-03T15:12:50;6.88;;;0.77;;
58665;SDS011;44436;52.872;6.520;2022-09-03T15:23:16;4.78;;;0.80;;
58665;SDS011;44436;52.872;6.520;2022-09-03T15:34:33;4.10;;;1.00;;
58665;SDS011;44436;52.872;6.520;2022-09-03T15:37:07;2.75;;;0.70;;
58665;SDS011;44436;52.872;6.520;2022-09-03T15:39:44;1.92;;;0.95;;
58665;SDS011;44436;52.872;6.520;2022-09-03T15:42:27;5.45;;;0.80;;
58665;SDS011;44436;52.872;6.520;2022-09-03T15:44:55;4.63;;;0.60;;
58665;SDS011;44436;52.872;6.520;2022-09-03T15:47:49;3.40;;;0.90;;
58665;SDS011;44436;52.872;6.520;2022-09-03T15:50:33;1.92;;;0.80;;
58665;SDS011;44436;52.872;6.520;2022-09-03T15:55:46;1.88;;;0.95;;
58665;SDS011;44436;52.872;6.520;2022-09-03T15:58:29;5.95;;;1.00;;
58665;SDS011;44436;52.872;6.520;2022-09-03T16:01:03;3.03;;;0.80;;
58665;SDS011;44436;52.872;6.520;2022-09-03T16:03:46;3.70;;;0.80;;
58665;SDS011;44436;52.872;6.520;2022-09-03T16:09:21;1.67;;;0.90;;
58665;SDS011;44436;52.872;6.520;2022-09-03T16:12:13;4.20;;;0.95;;
58665;SDS011;44436;52.872;6.520;2022-09-03T16:15:03;2.78;;;1.02;;
58665;SDS011;44436;52.872;6.520;2022-09-03T16:17:35;3.33;;;0.77;;
58665;SDS011;44436;52.872;6.520;2022-09-03T16:20:19;4.95;;;0.95;;
58665;SDS011;44436;52.872;6.520;2022-09-03T16:25:30;4.38;;;0.80;;
58665;SDS011;44436;52.872;6.520;2022-09-03T16:28:02;2.90;;;1.30;;
58665;SDS011;44436;52.872;6.520;2022-09-03T16:45:02;4.78;;;1.10;;
58665;SDS011;44436;52.872;6.520;2022-09-03T16:53:52;4.03;;;1.10;;
58665;SDS011;44436;52.872;6.520;2022-09-03T16:59:36;1.60;;;0.75;;
58665;SDS011;44436;52.872;6.520;2022-09-03T17:04:59;2.60;;;0.73;;
58665;SDS011;44436;52.872;6.520;2022-09-03T17:15:55;2.13;;;0.90;;
58665;SDS011;44436;52.872;6.520;2022-09-03T17:35:37;4.47;;;1.15;;
58665;SDS011;44436;52.872;6.520;2022-09-03T17:49:40;2.10;;;0.77;;
58665;SDS011;44436;52.872;6.520;2022-09-03T17:54:48;2.95;;;0.90;;
58665;SDS011;44436;52.872;6.520;2022-09-03T17:57:19;6.25;;;1.10;;
58665;SDS011;44436;52.872;6.520;2022-09-03T17:59:53;6.10;;;2.00;;
58665;SDS011;44436;52.872;6.520;2022-09-03T18:02:38;7.18;;;1.50;;
58665;SDS011;44436;52.872;6.520;2022-09-03T18:05:18;4.30;;;1.50;;
58665;SDS011;44436;52.872;6.520;2022-09-03T18:07:55;8.30;;;1.50;;
58665;SDS011;44436;52.872;6.520;2022-09-03T18:10:40;5.13;;;1.15;;
58665;SDS011;44436;52.872;6.520;2022-09-03T18:16:11;6.68;;;1.30;;
58665;SDS011;44436;52.872;6.520;2022-09-03T18:18:56;5.40;;;1.35;;
58665;SDS011;44436;52.872;6.520;2022-09-03T18:21:43;6.40;;;1.85;;
58665;SDS011;44436;52.872;6.520;2022-09-03T18:27:38;2.25;;;1.33;;
58665;SDS011;44436;52.872;6.520;2022-09-03T18:30:26;2.63;;;1.10;;
58665;SDS011;44436;52.872;6.520;2022-09-03T18:33:10;2.40;;;1.60;;
58665;SDS011;44436;52.872;6.520;2022-09-03T18:35:54;2.15;;;1.73;;
58665;SDS011;44436;52.872;6.520;2022-09-03T18:38:41;6.57;;;1.65;;
58665;SDS011;44436;52.872;6.520;2022-09-03T18:44:14;5.75;;;1.10;;
58665;SDS011;44436;52.872;6.520;2022-09-03T18:53:13;3.63;;;1.23;;
58665;SDS011;44436;52.872;6.520;2022-09-03T18:59:10;3.72;;;1.50;;
58665;SDS011;44436;52.872;6.520;2022-09-03T19:02:09;3.20;;;1.45;;
58665;SDS011;44436;52.872;6.520;2022-09-03T19:05:18;4.47;;;1.20;;
58665;SDS011;44436;52.872;6.520;2022-09-03T19:08:11;2.90;;;0.90;;
58665;SDS011;44436;52.872;6.520;2022-09-03T19:11:22;3.28;;;1.08;;
58665;SDS011;44436;52.872;6.520;2022-09-03T19:20:36;3.38;;;1.80;;
58665;SDS011;44436;52.872;6.520;2022-09-03T19:23:27;4.95;;;1.70;;
58665;SDS011;44436;52.872;6.520;2022-09-03T19:26:30;1.65;;;1.23;;
58665;SDS011;44436;52.872;6.520;2022-09-03T19:32:25;4.22;;;1.20;;
58665;SDS011;44436;52.872;6.520;2022-09-03T19:35:33;4.63;;;1.10;;
58665;SDS011;44436;52.872;6.520;2022-09-03T19:38:44;6.07;;;1.27;;
58665;SDS011;44436;52.872;6.520;2022-09-03T19:42:13;2.58;;;0.93;;
58665;SDS011;44436;52.872;6.520;2022-09-03T19:50:59;7.32;;;1.17;;
58665;SDS011;44436;52.872;6.520;2022-09-03T19:54:05;7.20;;;1.00;;
58665;SDS011;44436;52.872;6.520;2022-09-03T19:56:53;4.22;;;1.02;;
58665;SDS011;44436;52.872;6.520;2022-09-03T19:59:40;2.70;;;1.20;;
58665;SDS011;44436;52.872;6.520;2022-09-03T20:02:26;4.93;;;1.13;;
58665;SDS011;44436;52.872;6.520;2022-09-03T20:05:15;13.50;;;1.73;;
58665;SDS011;44436;52.872;6.520;2022-09-03T20:08:02;4.95;;;1.30;;
58665;SDS011;44436;52.872;6.520;2022-09-03T20:10:46;5.82;;;1.40;;
58665;SDS011;44436;52.872;6.520;2022-09-03T20:13:17;3.08;;;1.27;;
58665;SDS011;44436;52.872;6.520;2022-09-03T20:23:57;4.10;;;1.35;;
58665;SDS011;44436;52.872;6.520;2022-09-03T20:37:27;6.07;;;1.30;;
58665;SDS011;44436;52.872;6.520;2022-09-03T20:45:35;3.05;;;1.33;;
58665;SDS011;44436;52.872;6.520;2022-09-03T20:56:17;3.33;;;1.02;;
58665;SDS011;44436;52.872;6.520;2022-09-03T21:15:49;5.10;;;1.15;;
58665;SDS011;44436;52.872;6.520;2022-09-03T21:18:40;4.78;;;1.02;;